Terminal Aerodrome Forecast
Issued by NWS

Home | Current Version | Previous Version | Text Only | Print | Product List | Glossary On
Versions: 1 2 3 4 5 6 7 8 9 10 11 12 13 14 15 16 17
000
FTUS42 KJAX 301416 AAA
TAFCRG
TAF AMD
KCRG 301416Z 3014/3112 29011KT P6SM SCT015 OVC200
      TEMPO 3014/3016 BKN015
     FM301600 33011G18KT P6SM FEW030 BKN250
     FM302000 34010KT P6SM FEW250
     FM310000 35006KT P6SM FEW250=

USA.gov is the U.S. government's official web portal to all federal, state and local government web resources and services.